Time;durP1;ratioP1;P1;durP2;ratioP2;P2;SDS_P1;SDS_P2;PMS_P1;PMS_P2;Temp;Humidity;BMP_temperature;BMP_pressure;BME280_temperature;BME280_humidity;BME280_pressure;Samples;Min_cycle;Max_cycle;Signal;HPM_P1;HPM_P2
2022/09/15 00:02:03;;;;;;;16.00;12.00;;;13.90;99.90;;;;;;5051130;28;20197;-52
2022/09/15 00:04:29;;;;;;;14.47;11.20;;;13.90;99.90;;;;;;5049047;28;20205;-51
2022/09/15 00:06:54;;;;;;;15.63;13.53;;;13.90;99.90;;;;;;5051149;28;20204;-54
2022/09/15 00:09:20;;;;;;;13.93;11.43;;;13.90;99.90;;;;;;5049717;28;20209;-53
2022/09/15 00:11:46;;;;;;;15.50;11.90;;;13.80;99.90;;;;;;5050796;28;20213;-54
2022/09/15 00:14:12;;;;;;;20.37;13.07;;;13.80;99.90;;;;;;5050260;28;20276;-49
2022/09/15 00:16:38;;;;;;;15.93;12.20;;;13.80;99.90;;;;;;5050915;28;20463;-51
2022/09/15 00:19:05;;;;;;;15.83;12.60;;;13.80;99.90;;;;;;5051808;28;20190;-52
2022/09/15 00:21:33;;;;;;;14.93;12.43;;;13.90;99.90;;;;;;5060651;28;20244;-52
2022/09/15 00:24:00;;;;;;;16.07;12.77;;;13.90;99.90;;;;;;5050068;28;20464;-52
2022/09/15 00:26:27;;;;;;;14.37;12.73;;;13.90;99.90;;;;;;5050447;28;20771;-54
2022/09/15 00:28:55;;;;;;;16.37;12.93;;;13.90;99.90;;;;;;5050855;28;20877;-52
2022/09/15 00:31:22;;;;;;;16.43;12.97;;;13.90;99.90;;;;;;5048522;28;20429;-50
2022/09/15 00:33:50;;;;;;;20.70;14.07;;;13.90;99.90;;;;;;5049785;28;20417;-49
2022/09/15 00:36:17;;;;;;;16.10;12.83;;;14.00;99.90;;;;;;5050388;28;20822;-50
2022/09/15 00:38:43;;;;;;;16.50;12.63;;;14.00;99.90;;;;;;5047416;28;20421;-54
2022/09/15 00:41:16;;;;;;;20.13;14.60;;;13.90;99.90;;;;;;5047159;28;20830;-53
2022/09/15 00:43:44;;;;;;;18.40;13.63;;;14.00;99.90;;;;;;5049686;28;20507;-50
2022/09/15 00:46:10;;;;;;;19.17;13.70;;;14.00;99.90;;;;;;5050208;28;20424;-51
2022/09/15 00:48:40;;;;;;;17.57;13.20;;;14.00;99.90;;;;;;5050524;28;20976;-51
2022/09/15 00:51:07;;;;;;;18.93;13.17;;;14.00;99.90;;;;;;5050119;28;21190;-49
2022/09/15 00:53:34;;;;;;;17.90;13.40;;;14.10;99.90;;;;;;5048596;28;20439;-51
2022/09/15 00:56:01;;;;;;;15.47;13.47;;;14.00;99.90;;;;;;5050099;28;20779;-50
2022/09/15 00:58:38;;;;;;;17.13;12.90;;;14.00;99.90;;;;;;5050174;28;20433;-52
2022/09/15 01:01:06;;;;;;;17.70;12.77;;;13.90;99.90;;;;;;5048422;28;20453;-50
2022/09/15 01:03:34;;;;;;;18.80;13.70;;;13.90;99.90;;;;;;5049305;28;20968;-52
2022/09/15 01:06:24;;;;;;;15.43;12.30;;;13.90;99.90;;;;;;5049669;28;20525;-47
2022/09/15 01:09:03;;;;;;;15.83;13.10;;;13.80;99.90;;;;;;5049993;28;20439;-50
2022/09/15 01:11:29;;;;;;;14.10;11.73;;;13.80;99.90;;;;;;5050114;28;20404;-52
2022/09/15 01:13:55;;;;;;;17.73;12.47;;;13.70;99.90;;;;;;5049354;28;20769;-53
2022/09/15 01:16:46;;;;;;;14.10;11.07;;;13.60;99.90;;;;;;5049843;28;20443;-50
2022/09/15 01:19:18;;;;;;;13.27;10.67;;;13.60;99.90;;;;;;5043235;28;20201;-51
2022/09/15 01:21:46;;;;;;;15.80;11.50;;;13.50;99.90;;;;;;5057553;28;20427;-53
2022/09/15 01:24:24;;;;;;;14.47;11.70;;;13.50;99.90;;;;;;5049172;28;20459;-51
2022/09/15 01:27:11;;;;;;;13.67;12.00;;;13.50;99.90;;;;;;5049703;28;20473;-48
2022/09/15 01:29:49;;;;;;;15.33;12.40;;;13.50;99.90;;;;;;5055688;28;20494;-52
2022/09/15 01:35:40;;;;;;;20.20;13.53;;;13.50;99.90;;;;;;5056335;28;20939;-49
2022/09/15 01:38:18;;;;;;;16.20;12.10;;;13.60;99.90;;;;;;5056447;28;20416;-53
2022/09/15 01:40:59;;;;;;;16.03;11.80;;;13.60;99.90;;;;;;5056483;28;20901;-53
2022/09/15 01:43:28;;;;;;;17.70;12.17;;;13.60;99.90;;;;;;5055387;28;20505;-51
2022/09/15 01:45:54;;;;;;;14.43;12.00;;;13.60;99.90;;;;;;5056319;28;20454;-48
2022/09/15 01:48:24;;;;;;;12.47;10.30;;;13.50;99.90;;;;;;5049180;28;21068;-50
2022/09/15 01:50:56;;;;;;;13.60;10.97;;;13.50;99.90;;;;;;5056291;28;20416;-52
2022/09/15 01:53:23;;;;;;;15.27;11.40;;;13.50;99.90;;;;;;5054491;28;20492;-48
2022/09/15 01:55:53;;;;;;;15.60;12.10;;;13.50;99.90;;;;;;5055502;28;20926;-48
2022/09/15 01:58:20;;;;;;;14.83;11.17;;;13.50;99.90;;;;;;5054726;28;20435;-49
2022/09/15 02:00:52;;;;;;;17.03;13.90;;;13.60;99.90;;;;;;5055718;28;20427;-48
2022/09/15 02:03:24;;;;;;;17.10;11.93;;;13.50;99.90;;;;;;5055599;28;20566;-54
2022/09/15 02:06:01;;;;;;;15.40;12.87;;;13.50;99.90;;;;;;5055962;28;20447;-54
2022/09/15 02:08:48;;;;;;;16.23;12.67;;;13.40;99.90;;;;;;5056085;28;20790;-51
2022/09/15 02:11:18;;;;;;;17.63;12.30;;;13.40;99.90;;;;;;5054968;28;20415;-53
2022/09/15 02:14:34;;;;;;;14.37;11.47;;;13.30;99.90;;;;;;5055540;28;20506;-53
2022/09/15 02:17:01;;;;;;;17.80;13.00;;;13.40;99.90;;;;;;5052866;28;20438;-52
2022/09/15 02:19:39;;;;;;;13.83;11.70;;;13.40;99.90;;;;;;5049962;28;20459;-53
2022/09/15 02:22:10;;;;;;;15.80;11.97;;;13.30;99.90;;;;;;5061166;28;20444;-50
2022/09/15 02:24:46;;;;;;;16.50;12.83;;;13.30;99.90;;;;;;5055392;28;20423;-53
2022/09/15 02:27:20;;;;;;;15.47;12.97;;;13.30;99.90;;;;;;5055869;28;20419;-52
2022/09/15 02:29:47;;;;;;;15.80;12.20;;;13.40;99.90;;;;;;5055900;28;20416;-51
2022/09/15 02:32:16;;;;;;;15.70;12.33;;;13.30;99.90;;;;;;5055855;28;20474;-54
2022/09/15 02:34:46;;;;;;;17.90;11.73;;;13.30;99.90;;;;;;5054014;28;20451;-52
2022/09/15 02:37:13;;;;;;;14.70;11.40;;;13.40;99.90;;;;;;5055931;28;20434;-52
2022/09/15 02:39:44;;;;;;;15.67;12.80;;;13.40;99.90;;;;;;5053788;28;20421;-53
2022/09/15 02:42:10;;;;;;;15.53;12.20;;;13.40;99.90;;;;;;5052280;28;20416;-52
2022/09/15 02:44:36;;;;;;;17.37;12.17;;;13.40;99.90;;;;;;5046482;28;20475;-52
2022/09/15 02:47:02;;;;;;;17.53;13.73;;;13.40;99.90;;;;;;5048093;28;20416;-54
2022/09/15 02:49:28;;;;;;;23.10;14.67;;;13.40;99.90;;;;;;5052319;28;20788;-53
2022/09/15 02:51:54;;;;;;;17.80;13.90;;;13.50;99.90;;;;;;5052361;28;20435;-50
2022/09/15 02:54:20;;;;;;;17.60;13.73;;;13.50;99.90;;;;;;5050686;28;20201;-51
2022/09/15 02:56:46;;;;;;;17.23;13.47;;;13.50;99.90;;;;;;5052178;28;20200;-54
2022/09/15 02:59:13;;;;;;;18.03;14.00;;;13.50;99.90;;;;;;5052392;28;20189;-52
2022/09/15 03:01:39;;;;;;;22.20;14.77;;;13.50;99.90;;;;;;5052376;28;20872;-53
2022/09/15 03:04:06;;;;;;;17.50;13.90;;;13.50;99.90;;;;;;5051486;28;20501;-53
2022/09/15 03:06:35;;;;;;;18.40;14.33;;;13.50;99.90;;;;;;5051959;28;20439;-50
2022/09/15 03:09:06;;;;;;;22.70;15.13;;;13.50;99.90;;;;;;5051688;28;20823;-49
2022/09/15 03:11:33;;;;;;;19.60;13.93;;;13.40;99.90;;;;;;5051971;28;20463;-54
2022/09/15 03:14:01;;;;;;;16.90;13.37;;;13.50;99.90;;;;;;5051289;28;20506;-54
2022/09/15 03:16:29;;;;;;;19.70;15.10;;;13.50;99.90;;;;;;5051840;28;20442;-51
2022/09/15 03:18:58;;;;;;;19.33;14.70;;;13.50;99.90;;;;;;5051791;28;20510;-50
2022/09/15 03:21:25;;;;;;;21.87;15.30;;;13.60;99.90;;;;;;5041218;28;20464;-52
2022/09/15 03:23:50;;;;;;;20.23;16.37;;;13.70;99.90;;;;;;5050846;28;20460;-49
2022/09/15 03:26:16;;;;;;;24.80;17.40;;;13.70;99.90;;;;;;5051509;28;20424;-50
2022/09/15 03:28:42;;;;;;;25.07;16.67;;;13.80;99.90;;;;;;5050157;28;20193;-51
2022/09/15 03:31:08;;;;;;;25.20;18.60;;;13.80;99.90;;;;;;5052690;28;20224;-49
2022/09/15 03:33:34;;;;;;;24.23;17.00;;;13.90;99.90;;;;;;5050878;28;20186;-52
2022/09/15 03:36:01;;;;;;;23.40;16.63;;;13.90;99.90;;;;;;5051346;28;20617;-51
2022/09/15 03:38:27;;;;;;;24.47;17.00;;;14.00;99.90;;;;;;5051322;28;20190;-52
2022/09/15 03:41:00;;;;;;;29.57;18.03;;;13.90;99.90;;;;;;5050931;28;20612;-52
2022/09/15 03:43:26;;;;;;;23.90;17.50;;;13.90;99.90;;;;;;5050749;28;20227;-51
2022/09/15 03:45:53;;;;;;;21.87;15.50;;;13.90;99.90;;;;;;5051416;28;20420;-53
2022/09/15 03:48:19;;;;;;;20.70;16.80;;;14.00;99.90;;;;;;5051116;28;20455;-52
2022/09/15 03:50:45;;;;;;;20.77;16.67;;;14.00;99.90;;;;;;5050902;28;20870;-53
2022/09/15 03:53:11;;;;;;;24.83;16.80;;;14.00;99.90;;;;;;5049698;28;20490;-53
2022/09/15 03:55:36;;;;;;;25.70;17.30;;;14.00;99.90;;;;;;5051285;28;20206;-50
2022/09/15 03:58:02;;;;;;;22.53;16.87;;;14.00;99.90;;;;;;5051118;28;20216;-53
2022/09/15 04:00:28;;;;;;;21.63;16.53;;;14.00;99.90;;;;;;5051215;28;20197;-52
2022/09/15 04:02:54;;;;;;;20.70;16.27;;;14.00;99.90;;;;;;5049742;28;20300;-54
2022/09/15 04:05:19;;;;;;;23.00;15.87;;;14.00;99.90;;;;;;5050816;28;20197;-53
2022/09/15 04:07:45;;;;;;;22.53;15.93;;;14.10;99.90;;;;;;5050904;28;20189;-50
2022/09/15 04:10:11;;;;;;;21.63;16.73;;;14.00;99.90;;;;;;5051068;28;20186;-52
2022/09/15 04:12:37;;;;;;;25.77;16.80;;;14.10;99.90;;;;;;5049697;28;20196;-54
2022/09/15 04:15:03;;;;;;;21.23;14.87;;;14.00;99.90;;;;;;5050556;28;20443;-52
2022/09/15 04:17:29;;;;;;;19.50;14.70;;;14.00;99.90;;;;;;5048292;28;20553;-53
2022/09/15 04:19:55;;;;;;;20.10;16.27;;;14.00;99.90;;;;;;5058363;28;20440;-53
2022/09/15 04:22:20;;;;;;;21.20;15.63;;;14.00;99.90;;;;;;5053572;28;20189;-50
2022/09/15 04:24:49;;;;;;;23.00;16.07;;;14.00;99.90;;;;;;5054057;28;20182;-53
2022/09/15 04:27:16;;;;;;;23.87;17.17;;;14.00;99.90;;;;;;5049779;28;20243;-54
2022/09/15 04:29:42;;;;;;;22.30;15.13;;;14.00;99.90;;;;;;5061328;28;20446;-50
2022/09/15 04:32:08;;;;;;;22.00;16.30;;;14.00;99.90;;;;;;5063267;28;20416;-52
2022/09/15 04:34:34;;;;;;;21.20;16.80;;;14.00;99.90;;;;;;5049685;28;20432;-51
2022/09/15 04:37:00;;;;;;;24.47;16.17;;;14.00;99.90;;;;;;5050514;28;20558;-50
2022/09/15 04:39:25;;;;;;;21.47;14.83;;;14.00;99.90;;;;;;5049200;28;20221;-49
2022/09/15 04:41:51;;;;;;;21.07;16.47;;;14.00;99.90;;;;;;5048759;28;20205;-54
2022/09/15 04:44:17;;;;;;;18.60;15.53;;;14.00;99.90;;;;;;5042366;28;20360;-52
2022/09/15 04:46:43;;;;;;;17.77;14.23;;;14.00;99.90;;;;;;5044221;28;20657;-51
2022/09/15 04:49:08;;;;;;;19.07;14.77;;;14.00;99.90;;;;;;5046615;28;20424;-49
2022/09/15 04:51:34;;;;;;;20.87;16.07;;;14.00;99.90;;;;;;5044815;28;20197;-51
2022/09/15 04:54:00;;;;;;;18.87;15.57;;;13.90;99.90;;;;;;5048604;28;20185;-52
2022/09/15 04:56:26;;;;;;;18.30;13.30;;;13.90;99.90;;;;;;5048733;28;20652;-50
2022/09/15 04:58:58;;;;;;;18.07;14.03;;;13.90;99.90;;;;;;5050190;28;20190;-51
2022/09/15 05:01:29;;;;;;;17.50;14.47;;;13.90;99.90;;;;;;5049766;28;20420;-54
2022/09/15 05:03:54;;;;;;;17.97;13.93;;;13.90;99.90;;;;;;5047539;28;20480;-52
2022/09/15 05:06:23;;;;;;;18.60;15.37;;;13.90;99.90;;;;;;5045950;28;20445;-52
2022/09/15 05:08:51;;;;;;;16.83;14.60;;;13.90;99.90;;;;;;5050163;28;20570;-50
2022/09/15 05:11:17;;;;;;;24.10;15.40;;;13.90;99.90;;;;;;5049952;28;20894;-51
2022/09/15 05:13:43;;;;;;;23.23;14.57;;;13.90;99.90;;;;;;5049431;28;21160;-49
2022/09/15 05:16:12;;;;;;;16.10;12.47;;;14.00;99.90;;;;;;5049414;28;20519;-50
2022/09/15 05:18:40;;;;;;;15.97;14.10;;;14.00;99.90;;;;;;5050110;28;20423;-52
2022/09/15 05:21:07;;;;;;;20.57;13.90;;;14.00;99.90;;;;;;5060510;28;20466;-53
2022/09/15 05:23:34;;;;;;;17.37;13.53;;;14.10;99.90;;;;;;5048481;28;20479;-47
2022/09/15 05:26:03;;;;;;;18.63;13.43;;;14.00;99.90;;;;;;5048358;28;20950;-52
2022/09/15 05:28:30;;;;;;;17.60;13.93;;;14.10;99.90;;;;;;5049643;28;20443;-51
2022/09/15 05:30:56;;;;;;;19.20;14.43;;;14.20;99.90;;;;;;5049623;28;20424;-50
2022/09/15 05:33:23;;;;;;;20.60;14.20;;;14.20;99.90;;;;;;5049090;28;20416;-52
2022/09/15 05:35:54;;;;;;;17.77;13.53;;;14.20;99.90;;;;;;5049691;28;20280;-53
2022/09/15 05:38:19;;;;;;;20.80;13.70;;;14.30;99.90;;;;;;5049637;28;20432;-51
2022/09/15 05:40:45;;;;;;;19.87;15.33;;;14.40;99.90;;;;;;5049716;28;21016;-50
2022/09/15 05:43:11;;;;;;;17.80;13.73;;;14.30;99.90;;;;;;5048542;28;20715;-51
2022/09/15 05:45:36;;;;;;;24.00;15.87;;;14.30;99.90;;;;;;5049756;28;20292;-51
2022/09/15 05:48:03;;;;;;;20.50;13.20;;;14.40;99.90;;;;;;5048948;28;20211;-52
2022/09/15 05:50:32;;;;;;;20.30;14.00;;;14.30;99.90;;;;;;5048764;28;20581;-53
2022/09/15 05:52:57;;;;;;;20.00;14.20;;;14.40;99.90;;;;;;5045218;28;20535;-50
2022/09/15 05:55:23;;;;;;;16.57;14.10;;;14.40;99.90;;;;;;5049078;28;20503;-54
2022/09/15 05:57:49;;;;;;;17.57;14.93;;;14.40;99.90;;;;;;5049997;28;20193;-52
2022/09/15 06:00:15;;;;;;;18.60;14.53;;;14.40;99.90;;;;;;5049586;28;20181;-53
2022/09/15 06:02:40;;;;;;;19.63;13.87;;;14.40;99.90;;;;;;5048581;28;20213;-51
2022/09/15 06:05:06;;;;;;;17.90;15.13;;;14.40;99.90;;;;;;5049390;28;20448;-52
2022/09/15 06:07:32;;;;;;;19.47;14.20;;;14.40;99.90;;;;;;5049319;28;20664;-48
2022/09/15 06:09:58;;;;;;;20.20;15.50;;;14.40;99.90;;;;;;5049457;28;20489;-49
2022/09/15 06:12:24;;;;;;;22.10;15.03;;;14.40;99.90;;;;;;5048843;28;20935;-54
2022/09/15 06:14:51;;;;;;;20.47;15.20;;;14.50;99.90;;;;;;5050577;28;20265;-52
2022/09/15 06:17:17;;;;;;;16.60;14.80;;;14.60;99.90;;;;;;5052962;28;20193;-55
2022/09/15 06:19:43;;;;;;;20.33;15.87;;;14.60;99.90;;;;;;5059387;28;20511;-55
2022/09/15 06:22:08;;;;;;;20.67;15.40;;;14.60;99.90;;;;;;5055901;28;20807;-48
2022/09/15 06:24:34;;;;;;;21.03;14.77;;;14.60;99.90;;;;;;5052291;28;20557;-51
2022/09/15 06:27:00;;;;;;;19.43;16.10;;;14.60;99.90;;;;;;5052598;28;20189;-51
2022/09/15 06:29:25;;;;;;;19.20;15.70;;;14.60;99.90;;;;;;5052825;28;20186;-52
2022/09/15 06:31:51;;;;;;;21.33;16.33;;;14.50;99.90;;;;;;5050578;28;20240;-53
2022/09/15 06:34:17;;;;;;;19.13;15.93;;;14.50;99.90;;;;;;5050972;28;20181;-47
2022/09/15 06:36:42;;;;;;;18.60;14.83;;;14.50;99.90;;;;;;5052283;28;20192;-51
2022/09/15 06:39:08;;;;;;;19.40;15.47;;;14.60;99.90;;;;;;5052561;28;20250;-54
2022/09/15 06:41:34;;;;;;;21.37;15.73;;;14.60;99.90;;;;;;5052283;28;20189;-50
2022/09/15 06:44:00;;;;;;;18.30;14.80;;;14.60;99.90;;;;;;5051893;28;20217;-50
2022/09/15 06:46:27;;;;;;;19.47;15.70;;;14.70;99.90;;;;;;5051259;28;20201;-51
2022/09/15 06:48:53;;;;;;;20.97;15.53;;;14.70;99.90;;;;;;5051260;28;20482;-54
2022/09/15 06:51:22;;;;;;;26.53;16.00;;;14.70;99.90;;;;;;5052465;28;20454;-53
2022/09/15 06:53:48;;;;;;;18.90;15.00;;;14.80;99.90;;;;;;5050801;28;20412;-54
2022/09/15 06:56:17;;;;;;;21.10;15.87;;;14.80;99.90;;;;;;5052227;28;20976;-51
2022/09/15 06:58:44;;;;;;;16.97;14.10;;;14.80;99.90;;;;;;5052315;28;20199;-50
2022/09/15 07:01:12;;;;;;;21.87;15.40;;;14.90;99.90;;;;;;5052202;28;20424;-49
2022/09/15 07:03:39;;;;;;;17.67;15.73;;;14.90;99.90;;;;;;5053532;28;20555;-51
2022/09/15 07:06:06;;;;;;;20.30;15.17;;;14.90;99.90;;;;;;5048930;28;20464;-50
2022/09/15 07:08:31;;;;;;;21.33;15.57;;;14.90;99.90;;;;;;5052072;28;20416;-52
2022/09/15 07:10:57;;;;;;;21.83;14.13;;;15.00;99.90;;;;;;5055259;28;20484;-52
2022/09/15 07:13:23;;;;;;;18.87;15.00;;;15.00;99.90;;;;;;5056118;28;20538;-53
2022/09/15 07:15:54;;;;;;;19.07;14.80;;;15.00;99.90;;;;;;5051853;28;20190;-50
2022/09/15 07:18:21;;;;;;;17.80;15.20;;;15.10;99.90;;;;;;5052083;28;20428;-54
2022/09/15 07:20:46;;;;;;;18.63;15.60;;;15.00;99.90;;;;;;5063012;28;20550;-51
2022/09/15 07:23:12;;;;;;;20.00;14.60;;;15.10;99.90;;;;;;5050927;28;20543;-51
2022/09/15 07:25:43;;;;;;;19.37;14.60;;;15.00;99.90;;;;;;5068647;28;20189;-52
2022/09/15 07:28:13;;;;;;;17.70;14.90;;;15.10;99.90;;;;;;5071860;28;20941;-54
2022/09/15 07:30:40;;;;;;;18.93;13.80;;;15.10;99.90;;;;;;5054024;28;20443;-54
2022/09/15 07:33:07;;;;;;;18.33;14.10;;;15.00;99.90;;;;;;5051120;28;20468;-53
2022/09/15 07:35:33;;;;;;;19.00;13.77;;;15.00;99.90;;;;;;5051279;28;20515;-51
2022/09/15 07:38:01;;;;;;;19.70;14.70;;;15.00;99.90;;;;;;5062975;28;21001;-47
2022/09/15 07:40:27;;;;;;;17.37;12.80;;;15.00;99.90;;;;;;5071533;28;20189;-50
2022/09/15 07:42:53;;;;;;;15.33;11.80;;;15.00;99.90;;;;;;5069879;28;20458;-54
2022/09/15 07:45:19;;;;;;;15.37;12.20;;;15.10;99.90;;;;;;5051476;28;20277;-52
2022/09/15 07:47:44;;;;;;;16.63;11.13;;;15.10;99.90;;;;;;5050225;28;20189;-49
2022/09/15 07:50:10;;;;;;;13.90;11.20;;;15.10;99.90;;;;;;5051196;28;20196;-48
2022/09/15 07:52:35;;;;;;;15.03;11.27;;;15.20;99.90;;;;;;5050615;28;20182;-51
2022/09/15 07:55:01;;;;;;;12.70;10.37;;;15.30;99.90;;;;;;5047984;28;20272;-50
2022/09/15 07:57:27;;;;;;;19.23;10.60;;;15.40;99.90;;;;;;5051181;28;20209;-52
2022/09/15 07:59:53;;;;;;;14.00;10.77;;;15.40;99.90;;;;;;5044486;28;20355;-49
2022/09/15 08:02:20;;;;;;;16.17;12.67;;;15.40;99.90;;;;;;5049934;28;20654;-51
2022/09/15 08:04:45;;;;;;;14.00;11.93;;;15.50;99.90;;;;;;5049377;28;20440;-52
2022/09/15 08:07:12;;;;;;;18.70;12.07;;;15.60;99.90;;;;;;5050829;28;21070;-52
2022/09/15 08:09:39;;;;;;;12.80;11.50;;;15.60;99.90;;;;;;5051012;28;20431;-53
2022/09/15 08:12:05;;;;;;;14.20;11.03;;;15.60;99.90;;;;;;5050881;28;20442;-52
2022/09/15 08:14:32;;;;;;;13.73;10.30;;;15.70;99.90;;;;;;5049114;28;20427;-50
2022/09/15 08:17:00;;;;;;;13.80;10.83;;;15.70;99.90;;;;;;5050786;28;20420;-53
2022/09/15 08:19:33;;;;;;;16.40;10.70;;;15.80;99.90;;;;;;5053309;28;20427;-49
2022/09/15 08:22:00;;;;;;;11.77;9.93;;;15.90;99.90;;;;;;5056063;28;20460;-51
2022/09/15 08:24:26;;;;;;;16.27;10.27;;;16.00;99.90;;;;;;5050145;28;20559;-51
2022/09/15 08:26:52;;;;;;;12.63;10.10;;;16.10;99.90;;;;;;5050713;28;20435;-50
2022/09/15 08:29:18;;;;;;;11.13;8.60;;;16.10;99.90;;;;;;5050786;28;20424;-52
2022/09/15 08:31:45;;;;;;;11.80;8.83;;;16.10;99.90;;;;;;5050500;28;20186;-52
2022/09/15 08:34:12;;;;;;;10.50;7.43;;;16.20;99.90;;;;;;5049769;28;20202;-51
2022/09/15 08:36:38;;;;;;;10.40;8.10;;;16.30;99.90;;;;;;5050622;28;20463;-51
2022/09/15 08:39:04;;;;;;;8.37;6.50;;;16.30;99.90;;;;;;5049498;28;20509;-54
2022/09/15 08:41:43;;;;;;;15.13;8.10;;;16.30;99.90;;;;;;5050609;28;20484;-49
2022/09/15 08:44:43;;;;;;;8.07;7.20;;;16.30;99.90;;;;;;5049703;28;20455;-49
2022/09/15 08:47:44;;;;;;;8.03;6.10;;;16.40;99.90;;;;;;5052968;28;20511;-53
2022/09/15 08:50:26;;;;;;;10.90;6.83;;;16.40;99.90;;;;;;5036991;28;20775;-51
2022/09/15 08:53:01;;;;;;;7.63;6.30;;;16.40;99.90;;;;;;5049155;28;20508;-53
2022/09/15 08:55:49;;;;;;;7.87;5.43;;;16.50;99.90;;;;;;5050240;28;20481;-50
2022/09/15 08:58:18;;;;;;;7.60;5.30;;;16.60;99.90;;;;;;5050094;28;20466;-54
2022/09/15 09:00:51;;;;;;;5.70;5.10;;;16.70;99.90;;;;;;5050252;28;20432;-54
2022/09/15 09:03:32;;;;;;;11.60;4.67;;;16.70;99.90;;;;;;5048949;28;20464;-54
2022/09/15 09:06:05;;;;;;;7.87;4.10;;;16.70;99.90;;;;;;5049884;28;20447;-50
2022/09/15 09:08:51;;;;;;;12.80;3.43;;;16.70;99.90;;;;;;5049990;28;20482;-50
2022/09/15 09:11:48;;;;;;;5.07;3.23;;;16.80;99.90;;;;;;5050062;28;20412;-52
2022/09/15 09:14:22;;;;;;;4.67;3.00;;;16.90;99.90;;;;;;5049174;28;20428;-52
2022/09/15 09:16:48;;;;;;;8.50;3.13;;;17.00;99.90;;;;;;5049963;28;20444;-51
2022/09/15 09:19:21;;;;;;;3.77;2.57;;;17.00;99.90;;;;;;5052117;28;20467;-52
2022/09/15 09:21:54;;;;;;;5.70;2.70;;;17.00;99.90;;;;;;5056622;28;20920;-53
2022/09/15 09:24:42;;;;;;;3.83;2.47;;;17.00;99.90;;;;;;5049180;28;20936;-51
2022/09/15 09:27:14;;;;;;;4.40;2.40;;;17.10;99.90;;;;;;5049885;28;20782;-51
2022/09/15 09:29:48;;;;;;;3.73;2.43;;;17.10;99.90;;;;;;5049748;28;20428;-52
2022/09/15 09:32:26;;;;;;;3.80;2.00;;;17.10;99.90;;;;;;5049538;28;20419;-50
2022/09/15 09:35:02;;;;;;;8.40;2.77;;;17.20;99.90;;;;;;5049167;28;20930;-54
2022/09/15 09:37:28;;;;;;;4.53;2.27;;;17.30;99.90;;;;;;5049942;28;20424;-50
2022/09/15 09:39:53;;;;;;;3.93;2.43;;;17.40;99.90;;;;;;5049557;28;20416;-52
2022/09/15 09:42:26;;;;;;;6.57;2.30;;;17.50;99.90;;;;;;5048359;28;20427;-50
2022/09/15 09:44:52;;;;;;;4.77;1.90;;;17.60;99.90;;;;;;5048846;28;20529;-50
2022/09/15 09:47:19;;;;;;;6.40;2.53;;;17.60;99.90;;;;;;5048622;28;20428;-54
2022/09/15 09:49:47;;;;;;;5.23;2.17;;;17.70;99.90;;;;;;5049035;28;20460;-51
2022/09/15 09:52:35;;;;;;;2.50;1.90;;;17.60;99.90;;;;;;5053456;28;20428;-52
2022/09/15 09:55:19;;;;;;;5.13;2.00;;;17.50;99.90;;;;;;5052528;28;20814;-49
2022/09/15 09:57:44;;;;;;;3.53;1.87;;;17.40;99.90;;;;;;5053638;28;20475;-52
2022/09/15 10:00:29;;;;;;;8.70;1.90;;;17.40;99.90;;;;;;5053387;28;20420;-54
2022/09/15 10:02:54;;;;;;;4.80;1.70;;;17.40;99.90;;;;;;5052748;28;20205;-52
2022/09/15 10:05:20;;;;;;;5.13;1.73;;;17.30;99.90;;;;;;5053193;28;20542;-53
2022/09/15 10:07:46;;;;;;;5.17;1.93;;;17.40;99.90;;;;;;5052993;28;20646;-52
2022/09/15 10:10:22;;;;;;;3.20;1.63;;;17.30;99.90;;;;;;5053400;28;20798;-52
2022/09/15 10:12:53;;;;;;;5.43;2.07;;;17.30;99.90;;;;;;5052630;28;20185;-49
2022/09/15 10:15:32;;;;;;;2.80;1.30;;;17.40;99.90;;;;;;5053240;28;20431;-51
2022/09/15 10:18:00;;;;;;;7.73;1.97;;;17.40;99.90;;;;;;5053206;28;20467;-52
2022/09/15 10:20:48;;;;;;;8.13;1.77;;;17.50;99.90;;;;;;5062646;28;20526;-49
2022/09/15 10:23:16;;;;;;;5.60;1.50;;;17.50;99.90;;;;;;5052469;28;20963;-52
2022/09/15 10:25:43;;;;;;;5.27;1.83;;;17.50;99.90;;;;;;5053009;28;20451;-51
2022/09/15 10:28:13;;;;;;;6.27;1.30;;;17.60;99.90;;;;;;5053063;28;20443;-53
2022/09/15 10:30:56;;;;;;;3.47;1.40;;;17.60;99.90;;;;;;5052459;28;20463;-54
2022/09/15 10:33:28;;;;;;;6.40;1.73;;;17.50;99.90;;;;;;5052385;28;20531;-51
2022/09/15 10:36:01;;;;;;;2.93;1.50;;;17.50;99.90;;;;;;5052758;28;20463;-51
2022/09/15 10:38:51;;;;;;;6.47;1.70;;;17.50;99.90;;;;;;5052832;28;20802;-54
2022/09/15 10:41:27;;;;;;;3.20;2.00;;;17.40;99.90;;;;;;5052718;28;20974;-48
2022/09/15 10:44:30;;;;;;;3.00;1.43;;;17.40;99.90;;;;;;5052253;28;20470;-52
2022/09/15 10:47:15;;;;;;;3.17;1.23;;;17.40;99.90;;;;;;5052468;28;20530;-54
2022/09/15 10:49:50;;;;;;;4.70;1.50;;;17.20;99.90;;;;;;5052582;28;20438;-54
2022/09/15 10:52:44;;;;;;;3.47;1.37;;;17.10;99.90;;;;;;5052510;28;20420;-53
2022/09/15 10:55:18;;;;;;;4.17;1.53;;;17.10;99.90;;;;;;5051057;28;20431;-52
2022/09/15 10:58:32;;;;;;;7.50;1.97;;;17.10;99.90;;;;;;5052080;28;20835;-53
2022/09/15 11:01:15;;;;;;;2.93;1.80;;;17.00;99.90;;;;;;5068458;28;20459;-51
2022/09/15 11:04:14;;;;;;;3.67;1.83;;;17.00;99.90;;;;;;5039915;28;20529;-52
2022/09/15 11:06:42;;;;;;;3.53;2.00;;;17.00;99.90;;;;;;5052345;28;20799;-53
2022/09/15 11:09:13;;;;;;;3.03;1.80;;;16.90;99.90;;;;;;5052219;28;20421;-53
2022/09/15 11:12:10;;;;;;;2.70;1.70;;;16.70;99.90;;;;;;5052169;28;20417;-53
2022/09/15 11:15:14;;;;;;;4.43;1.70;;;16.50;99.90;;;;;;5050131;28;20429;-54
2022/09/15 11:17:53;;;;;;;3.53;1.77;;;16.50;99.90;;;;;;5050756;28;20526;-51
2022/09/15 11:20:28;;;;;;;3.73;1.97;;;16.40;99.90;;;;;;5062657;28;20423;-51
2022/09/15 11:23:23;;;;;;;4.63;1.80;;;16.20;99.90;;;;;;5050935;28;20495;-49
2022/09/15 11:25:55;;;;;;;4.77;2.10;;;16.20;99.90;;;;;;5052033;28;20436;-53
2022/09/15 11:28:53;;;;;;;6.13;2.20;;;16.10;99.90;;;;;;5051845;28;20440;-53
2022/09/15 11:31:25;;;;;;;3.03;1.60;;;16.00;99.90;;;;;;5057355;28;20531;-54
2022/09/15 11:34:20;;;;;;;4.27;1.67;;;15.90;99.90;;;;;;5051051;28;20432;-53
2022/09/15 11:37:01;;;;;;;3.80;1.57;;;15.90;99.90;;;;;;5051825;28;20424;-49
2022/09/15 11:39:35;;;;;;;3.90;2.50;;;15.90;99.90;;;;;;5051487;28;20471;-52
2022/09/15 11:42:09;;;;;;;2.73;1.30;;;15.80;99.90;;;;;;5051521;28;20428;-49
2022/09/15 11:44:41;;;;;;;4.03;1.43;;;15.80;99.90;;;;;;5050796;28;20977;-50
2022/09/15 11:47:27;;;;;;;2.33;1.17;;;15.80;99.90;;;;;;5051554;28;20424;-50
2022/09/15 11:50:08;;;;;;;4.73;1.87;;;15.90;99.90;;;;;;5051272;28;20751;-51
2022/09/15 11:52:56;;;;;;;5.07;1.60;;;16.00;99.90;;;;;;5051176;28;20415;-50
2022/09/15 11:55:37;;;;;;;3.87;1.60;;;16.00;99.90;;;;;;5047034;28;20436;-50
2022/09/15 11:58:15;;;;;;;1.93;1.20;;;16.10;99.90;;;;;;5049186;28;20440;-54
2022/09/15 12:01:02;;;;;;;4.97;1.73;;;16.00;99.90;;;;;;5042551;28;20974;-53
2022/09/15 12:03:35;;;;;;;2.20;1.03;;;16.10;99.90;;;;;;5038019;28;20462;-53
2022/09/15 12:06:16;;;;;;;2.97;1.60;;;16.20;99.90;;;;;;5050794;28;20490;-48
2022/09/15 12:09:02;;;;;;;2.53;1.60;;;16.30;99.90;;;;;;5050681;28;20431;-50
2022/09/15 12:11:36;;;;;;;3.40;1.73;;;16.40;99.90;;;;;;5050914;28;20424;-53
2022/09/15 12:14:05;;;;;;;5.50;2.67;;;16.60;99.90;;;;;;5045355;28;20431;-50
2022/09/15 12:16:33;;;;;;;6.20;1.90;;;16.70;99.90;;;;;;5050797;28;20439;-51
2022/09/15 12:19:16;;;;;;;3.80;2.00;;;17.00;99.90;;;;;;5050484;28;21952;-50
2022/09/15 12:21:56;;;;;;;4.43;2.10;;;17.10;99.90;;;;;;5058611;28;20464;-51
2022/09/15 12:24:39;;;;;;;2.73;2.00;;;17.20;99.90;;;;;;5050084;28;20464;-54
2022/09/15 12:27:09;;;;;;;3.33;2.00;;;17.30;99.90;;;;;;5050211;28;20440;-49
2022/09/15 12:29:40;;;;;;;4.50;2.07;;;17.30;99.90;;;;;;5049437;28;20511;-52
2022/09/15 12:32:21;;;;;;;3.57;2.13;;;17.30;99.90;;;;;;5049554;28;20428;-52
2022/09/15 12:35:12;;;;;;;3.17;1.80;;;17.30;99.90;;;;;;5049937;28;20431;-52
2022/09/15 12:37:46;;;;;;;3.53;1.87;;;17.30;99.90;;;;;;5050245;28;20482;-52
2022/09/15 12:40:32;;;;;;;5.83;2.37;;;17.30;99.90;;;;;;5050619;28;20482;-49
2022/09/15 12:43:15;;;;;;;3.37;1.60;;;17.20;99.90;;;;;;5049584;28;20472;-50
2022/09/15 12:45:43;;;;;;;5.03;2.03;;;17.20;99.90;;;;;;5050209;28;20435;-50
2022/09/15 12:48:17;;;;;;;4.00;2.40;;;17.20;99.90;;;;;;5049803;28;20524;-53
2022/09/15 12:50:56;;;;;;;2.43;2.00;;;17.10;99.90;;;;;;5050122;28;20423;-52
2022/09/15 12:53:47;;;;;;;3.07;1.87;;;17.20;99.90;;;;;;5047823;28;20465;-48
2022/09/15 12:56:49;;;;;;;4.60;1.90;;;17.10;99.90;;;;;;5045697;28;20440;-52
2022/09/15 12:59:15;;;;;;;2.70;1.93;;;17.10;99.90;;;;;;5050672;28;20451;-53